sensor_id;sensor_type;location;lat;lon;timestamp;pressure;altitude;pressure_sealevel;temperature;humidity
60214;BME280;46080;46.904;19.688;2022-07-12T00:02:07;100534.06;;;17.36;47.17
60214;BME280;46080;46.904;19.688;2022-07-12T00:04:33;100531.53;;;17.15;47.76
60214;BME280;46080;46.904;19.688;2022-07-12T00:06:58;100536.91;;;17.08;47.67
60214;BME280;46080;46.904;19.688;2022-07-12T00:09:24;100536.47;;;17.05;48.23
60214;BME280;46080;46.904;19.688;2022-07-12T00:11:50;100532.53;;;17.00;48.29
60214;BME280;46080;46.904;19.688;2022-07-12T00:14:16;100533.97;;;16.96;48.33
60214;BME280;46080;46.904;19.688;2022-07-12T00:16:41;100527.84;;;16.74;48.63
60214;BME280;46080;46.904;19.688;2022-07-12T00:19:07;100531.72;;;16.65;48.87
60214;BME280;46080;46.904;19.688;2022-07-12T00:21:34;100528.53;;;16.48;49.35
60214;BME280;46080;46.904;19.688;2022-07-12T00:24:00;100536.97;;;16.38;49.30
60214;BME280;46080;46.904;19.688;2022-07-12T00:26:26;100535.59;;;16.49;48.97
60214;BME280;46080;46.904;19.688;2022-07-12T00:28:52;100536.47;;;16.56;48.58
60214;BME280;46080;46.904;19.688;2022-07-12T00:31:18;100528.19;;;16.58;48.59
60214;BME280;46080;46.904;19.688;2022-07-12T00:33:45;100527.09;;;16.45;48.70
60214;BME280;46080;46.904;19.688;2022-07-12T00:36:11;100528.41;;;16.21;49.40
60214;BME280;46080;46.904;19.688;2022-07-12T00:38:37;100530.88;;;16.23;49.30
60214;BME280;46080;46.904;19.688;2022-07-12T00:41:03;100533.59;;;16.29;49.19
60214;BME280;46080;46.904;19.688;2022-07-12T00:43:28;100529.66;;;16.25;48.93
60214;BME280;46080;46.904;19.688;2022-07-12T00:45:54;100525.19;;;16.39;49.04
60214;BME280;46080;46.904;19.688;2022-07-12T00:48:20;100529.63;;;16.54;48.46
60214;BME280;46080;46.904;19.688;2022-07-12T00:50:46;100535.06;;;16.67;48.12
60214;BME280;46080;46.904;19.688;2022-07-12T00:53:13;100518.66;;;16.55;48.07
60214;BME280;46080;46.904;19.688;2022-07-12T00:55:39;100521.66;;;16.39;48.86
60214;BME280;46080;46.904;19.688;2022-07-12T00:58:05;100522.91;;;16.36;48.59
60214;BME280;46080;46.904;19.688;2022-07-12T01:00:31;100523.31;;;16.33;48.85
60214;BME280;46080;46.904;19.688;2022-07-12T01:02:58;100524.00;;;16.13;49.45
60214;BME280;46080;46.904;19.688;2022-07-12T01:05:29;100526.06;;;16.11;49.32
60214;BME280;46080;46.904;19.688;2022-07-12T01:07:56;100525.41;;;16.09;49.37
60214;BME280;46080;46.904;19.688;2022-07-12T01:10:22;100526.59;;;16.00;49.46
60214;BME280;46080;46.904;19.688;2022-07-12T01:12:49;100529.97;;;15.81;50.12
60214;BME280;46080;46.904;19.688;2022-07-12T01:15:15;100527.31;;;15.66;50.56
60214;BME280;46080;46.904;19.688;2022-07-12T01:17:44;100531.44;;;15.62;50.62
60214;BME280;46080;46.904;19.688;2022-07-12T01:20:10;100532.72;;;15.44;50.79
60214;BME280;46080;46.904;19.688;2022-07-12T01:22:39;100532.13;;;15.27;51.28
60214;BME280;46080;46.904;19.688;2022-07-12T01:25:06;100532.44;;;15.17;51.54
60214;BME280;46080;46.904;19.688;2022-07-12T01:27:32;100535.88;;;15.11;51.94
60214;BME280;46080;46.904;19.688;2022-07-12T01:30:01;100536.06;;;15.10;52.06
60214;BME280;46080;46.904;19.688;2022-07-12T01:32:26;100541.75;;;15.00;51.99
60214;BME280;46080;46.904;19.688;2022-07-12T01:34:57;100546.47;;;14.98;52.25
60214;BME280;46080;46.904;19.688;2022-07-12T01:37:25;100533.22;;;14.96;52.21
60214;BME280;46080;46.904;19.688;2022-07-12T01:39:53;100539.63;;;14.95;52.10
60214;BME280;46080;46.904;19.688;2022-07-12T01:42:20;100531.09;;;14.92;52.86
60214;BME280;46080;46.904;19.688;2022-07-12T01:44:46;100530.22;;;14.84;52.99
60214;BME280;46080;46.904;19.688;2022-07-12T01:47:12;100534.28;;;14.80;52.95
60214;BME280;46080;46.904;19.688;2022-07-12T01:49:37;100527.91;;;14.81;52.76
60214;BME280;46080;46.904;19.688;2022-07-12T01:52:04;100528.09;;;14.80;52.81
60214;BME280;46080;46.904;19.688;2022-07-12T01:54:30;100526.50;;;14.85;52.23
60214;BME280;46080;46.904;19.688;2022-07-12T01:56:56;100522.34;;;14.83;52.69
60214;BME280;46080;46.904;19.688;2022-07-12T01:59:22;100517.06;;;14.90;52.04
60214;BME280;46080;46.904;19.688;2022-07-12T02:01:48;100520.94;;;14.87;52.08
60214;BME280;46080;46.904;19.688;2022-07-12T02:04:20;100522.34;;;14.83;51.91
60214;BME280;46080;46.904;19.688;2022-07-12T02:06:46;100522.88;;;14.93;51.46
60214;BME280;46080;46.904;19.688;2022-07-12T02:09:12;100519.75;;;14.90;51.42
60214;BME280;46080;46.904;19.688;2022-07-12T02:11:38;100515.94;;;14.84;51.76
60214;BME280;46080;46.904;19.688;2022-07-12T02:14:04;100517.75;;;14.77;51.46
60214;BME280;46080;46.904;19.688;2022-07-12T02:16:30;100520.31;;;14.70;51.61
60214;BME280;46080;46.904;19.688;2022-07-12T02:18:57;100516.22;;;14.59;51.39
60214;BME280;46080;46.904;19.688;2022-07-12T02:21:23;100511.97;;;14.50;52.20
60214;BME280;46080;46.904;19.688;2022-07-12T02:23:48;100515.88;;;14.47;52.49
60214;BME280;46080;46.904;19.688;2022-07-12T02:26:14;100517.94;;;14.45;51.97
60214;BME280;46080;46.904;19.688;2022-07-12T02:28:41;100519.50;;;14.40;51.97
60214;BME280;46080;46.904;19.688;2022-07-12T02:31:07;100522.19;;;14.40;51.90
60214;BME280;46080;46.904;19.688;2022-07-12T02:33:32;100523.19;;;14.39;52.85
60214;BME280;46080;46.904;19.688;2022-07-12T02:35:58;100526.53;;;14.41;52.69
60214;BME280;46080;46.904;19.688;2022-07-12T02:38:24;100522.47;;;14.30;53.11
60214;BME280;46080;46.904;19.688;2022-07-12T02:40:49;100528.56;;;14.24;52.55
60214;BME280;46080;46.904;19.688;2022-07-12T02:43:26;100527.72;;;14.23;52.86
60214;BME280;46080;46.904;19.688;2022-07-12T02:45:54;100536.88;;;14.14;53.07
60214;BME280;46080;46.904;19.688;2022-07-12T02:48:21;100526.44;;;14.19;53.47
60214;BME280;46080;46.904;19.688;2022-07-12T02:50:48;100532.00;;;14.18;52.67
60214;BME280;46080;46.904;19.688;2022-07-12T02:53:14;100531.81;;;14.19;53.46
60214;BME280;46080;46.904;19.688;2022-07-12T02:55:40;100530.13;;;14.18;53.20
60214;BME280;46080;46.904;19.688;2022-07-12T02:58:06;100535.03;;;14.14;53.08
60214;BME280;46080;46.904;19.688;2022-07-12T03:00:33;100531.50;;;14.14;52.94
60214;BME280;46080;46.904;19.688;2022-07-12T03:03:00;100525.88;;;14.09;53.21
60214;BME280;46080;46.904;19.688;2022-07-12T03:05:27;100531.41;;;14.07;53.50
60214;BME280;46080;46.904;19.688;2022-07-12T03:07:52;100520.22;;;14.04;53.11
60214;BME280;46080;46.904;19.688;2022-07-12T03:10:18;100530.38;;;13.93;53.66
60214;BME280;46080;46.904;19.688;2022-07-12T03:12:44;100527.09;;;13.83;53.60
60214;BME280;46080;46.904;19.688;2022-07-12T03:15:10;100530.56;;;13.92;53.57
60214;BME280;46080;46.904;19.688;2022-07-12T03:17:36;100530.41;;;14.23;52.73
60214;BME280;46080;46.904;19.688;2022-07-12T03:20:03;100532.44;;;14.81;51.19
60214;BME280;46080;46.904;19.688;2022-07-12T03:22:30;100527.72;;;15.63;49.90
60214;BME280;46080;46.904;19.688;2022-07-12T03:24:55;100525.31;;;16.24;48.30
60214;BME280;46080;46.904;19.688;2022-07-12T03:27:21;100530.38;;;16.82;46.87
60214;BME280;46080;46.904;19.688;2022-07-12T03:29:47;100534.50;;;17.47;45.78
60214;BME280;46080;46.904;19.688;2022-07-12T03:32:13;100524.97;;;18.04;44.23
60214;BME280;46080;46.904;19.688;2022-07-12T03:34:38;100528.59;;;18.57;43.26
60214;BME280;46080;46.904;19.688;2022-07-12T03:37:04;100531.13;;;19.04;41.41
60214;BME280;46080;46.904;19.688;2022-07-12T03:39:30;100536.28;;;19.44;41.16
60214;BME280;46080;46.904;19.688;2022-07-12T03:41:56;100532.53;;;19.77;39.70
60214;BME280;46080;46.904;19.688;2022-07-12T03:44:22;100541.09;;;19.99;39.18
60214;BME280;46080;46.904;19.688;2022-07-12T03:46:47;100531.91;;;20.44;38.75
60214;BME280;46080;46.904;19.688;2022-07-12T03:49:13;100534.19;;;20.84;38.27
60214;BME280;46080;46.904;19.688;2022-07-12T03:51:39;100531.13;;;21.22;37.50
60214;BME280;46080;46.904;19.688;2022-07-12T03:54:06;100531.38;;;21.51;36.04
60214;BME280;46080;46.904;19.688;2022-07-12T03:56:34;100533.69;;;22.01;35.97
60214;BME280;46080;46.904;19.688;2022-07-12T03:59:18;100537.13;;;22.32;34.74
60214;BME280;46080;46.904;19.688;2022-07-12T04:01:44;100535.66;;;22.42;34.03
60214;BME280;46080;46.904;19.688;2022-07-12T04:04:10;100544.75;;;22.59;34.21
60214;BME280;46080;46.904;19.688;2022-07-12T04:06:36;100540.97;;;23.01;33.77
60214;BME280;46080;46.904;19.688;2022-07-12T04:09:02;100538.97;;;23.25;32.52
60214;BME280;46080;46.904;19.688;2022-07-12T04:11:29;100538.34;;;23.35;32.37
60214;BME280;46080;46.904;19.688;2022-07-12T04:13:55;100547.53;;;23.45;31.88
60214;BME280;46080;46.904;19.688;2022-07-12T04:16:21;100540.72;;;23.31;32.20
60214;BME280;46080;46.904;19.688;2022-07-12T04:18:46;100529.31;;;23.17;32.79
60214;BME280;46080;46.904;19.688;2022-07-12T04:21:12;100530.03;;;23.13;32.83
60214;BME280;46080;46.904;19.688;2022-07-12T04:23:38;100545.38;;;23.19;32.10
60214;BME280;46080;46.904;19.688;2022-07-12T04:26:04;100540.34;;;22.99;32.88
60214;BME280;46080;46.904;19.688;2022-07-12T04:28:29;100548.59;;;22.75;33.76
60214;BME280;46080;46.904;19.688;2022-07-12T04:30:55;100542.28;;;22.46;33.79
60214;BME280;46080;46.904;19.688;2022-07-12T04:33:21;100536.72;;;22.29;34.23
60214;BME280;46080;46.904;19.688;2022-07-12T04:35:46;100538.63;;;22.28;34.60
60214;BME280;46080;46.904;19.688;2022-07-12T04:38:12;100540.19;;;22.36;34.37
60214;BME280;46080;46.904;19.688;2022-07-12T04:40:38;100529.03;;;22.26;34.45
60214;BME280;46080;46.904;19.688;2022-07-12T04:43:04;100536.94;;;22.51;34.52
60214;BME280;46080;46.904;19.688;2022-07-12T04:45:29;100539.75;;;22.68;34.44
60214;BME280;46080;46.904;19.688;2022-07-12T04:47:55;100534.78;;;23.05;34.17
60214;BME280;46080;46.904;19.688;2022-07-12T04:50:21;100538.25;;;23.30;33.58
60214;BME280;46080;46.904;19.688;2022-07-12T04:52:46;100537.69;;;23.44;33.50
60214;BME280;46080;46.904;19.688;2022-07-12T04:55:12;100542.41;;;23.66;33.16
60214;BME280;46080;46.904;19.688;2022-07-12T04:57:38;100531.31;;;23.85;32.74
60214;BME280;46080;46.904;19.688;2022-07-12T05:00:05;100533.91;;;24.13;32.60
60214;BME280;46080;46.904;19.688;2022-07-12T05:02:32;100543.03;;;24.24;32.00
60214;BME280;46080;46.904;19.688;2022-07-12T05:04:58;100538.50;;;24.30;32.30
60214;BME280;46080;46.904;19.688;2022-07-12T05:07:23;100535.09;;;24.40;31.70
60214;BME280;46080;46.904;19.688;2022-07-12T05:09:49;100542.91;;;24.53;31.99
60214;BME280;46080;46.904;19.688;2022-07-12T05:12:17;100550.50;;;24.68;31.80
60214;BME280;46080;46.904;19.688;2022-07-12T05:14:43;100544.31;;;24.56;31.31
60214;BME280;46080;46.904;19.688;2022-07-12T05:17:08;100547.31;;;24.76;31.29
60214;BME280;46080;46.904;19.688;2022-07-12T05:19:35;100537.91;;;24.89;31.53
60214;BME280;46080;46.904;19.688;2022-07-12T05:22:00;100555.63;;;24.86;31.57
60214;BME280;46080;46.904;19.688;2022-07-12T05:24:27;100555.22;;;24.78;30.88
60214;BME280;46080;46.904;19.688;2022-07-12T05:26:54;100551.63;;;25.21;30.63
60214;BME280;46080;46.904;19.688;2022-07-12T05:29:19;100556.00;;;25.22;30.91
60214;BME280;46080;46.904;19.688;2022-07-12T05:31:45;100564.50;;;25.26;30.67
60214;BME280;46080;46.904;19.688;2022-07-12T05:34:11;100561.31;;;25.34;30.72
60214;BME280;46080;46.904;19.688;2022-07-12T05:36:37;100566.78;;;25.12;31.04
60214;BME280;46080;46.904;19.688;2022-07-12T05:39:03;100561.91;;;25.14;30.55
60214;BME280;46080;46.904;19.688;2022-07-12T05:41:29;100568.88;;;25.27;30.84
60214;BME280;46080;46.904;19.688;2022-07-12T05:43:55;100568.41;;;25.95;30.32
60214;BME280;46080;46.904;19.688;2022-07-12T05:46:20;100578.19;;;26.23;30.04
60214;BME280;46080;46.904;19.688;2022-07-12T05:48:46;100564.94;;;26.05;29.64
60214;BME280;46080;46.904;19.688;2022-07-12T05:51:12;100564.94;;;26.05;29.34
60214;BME280;46080;46.904;19.688;2022-07-12T05:53:56;100574.84;;;26.11;29.55
60214;BME280;46080;46.904;19.688;2022-07-12T05:56:21;100563.34;;;26.09;29.43
60214;BME280;46080;46.904;19.688;2022-07-12T05:58:47;100570.34;;;26.37;29.32
60214;BME280;46080;46.904;19.688;2022-07-12T06:01:13;100574.44;;;26.35;29.18
60214;BME280;46080;46.904;19.688;2022-07-12T06:03:39;100563.16;;;26.69;28.80
60214;BME280;46080;46.904;19.688;2022-07-12T06:06:05;100565.25;;;26.56;29.02
60214;BME280;46080;46.904;19.688;2022-07-12T06:08:30;100555.22;;;26.67;28.86
60214;BME280;46080;46.904;19.688;2022-07-12T06:10:56;100563.09;;;26.63;29.18
60214;BME280;46080;46.904;19.688;2022-07-12T06:13:22;100551.78;;;26.44;29.21
60214;BME280;46080;46.904;19.688;2022-07-12T06:15:48;100550.88;;;26.81;28.59
60214;BME280;46080;46.904;19.688;2022-07-12T06:18:13;100541.81;;;26.71;28.88
60214;BME280;46080;46.904;19.688;2022-07-12T06:20:39;100547.81;;;26.68;28.77
60214;BME280;46080;46.904;19.688;2022-07-12T06:23:05;100549.56;;;26.94;28.19
60214;BME280;46080;46.904;19.688;2022-07-12T06:25:30;100553.16;;;27.10;28.09
60214;BME280;46080;46.904;19.688;2022-07-12T06:28:00;100553.72;;;27.28;27.80
60214;BME280;46080;46.904;19.688;2022-07-12T06:30:25;100552.66;;;27.24;27.65
60214;BME280;46080;46.904;19.688;2022-07-12T06:32:51;100554.19;;;26.94;28.23
60214;BME280;46080;46.904;19.688;2022-07-12T06:35:17;100559.13;;;26.97;27.91
60214;BME280;46080;46.904;19.688;2022-07-12T06:37:43;100556.88;;;26.73;28.04
60214;BME280;46080;46.904;19.688;2022-07-12T06:40:09;100550.78;;;26.61;28.61
60214;BME280;46080;46.904;19.688;2022-07-12T06:42:36;100555.09;;;27.20;28.16
60214;BME280;46080;46.904;19.688;2022-07-12T06:45:02;100553.72;;;27.23;27.58
60214;BME280;46080;46.904;19.688;2022-07-12T06:47:28;100551.81;;;27.23;27.84
60214;BME280;46080;46.904;19.688;2022-07-12T06:49:54;100556.47;;;27.28;27.00
60214;BME280;46080;46.904;19.688;2022-07-12T06:52:20;100558.19;;;27.65;27.31
60214;BME280;46080;46.904;19.688;2022-07-12T06:54:45;100556.78;;;27.93;26.51
60214;BME280;46080;46.904;19.688;2022-07-12T06:57:11;100559.53;;;27.31;27.12
60214;BME280;46080;46.904;19.688;2022-07-12T06:59:37;100558.91;;;27.09;28.07
60214;BME280;46080;46.904;19.688;2022-07-12T07:02:03;100558.94;;;27.29;27.99
60214;BME280;46080;46.904;19.688;2022-07-12T07:04:29;100561.69;;;27.29;27.96
60214;BME280;46080;46.904;19.688;2022-07-12T07:06:55;100558.94;;;27.24;28.17
60214;BME280;46080;46.904;19.688;2022-07-12T07:09:21;100565.31;;;27.97;27.74
60214;BME280;46080;46.904;19.688;2022-07-12T07:11:47;100546.91;;;28.23;26.73
60214;BME280;46080;46.904;19.688;2022-07-12T07:14:13;100554.38;;;27.61;26.96
60214;BME280;46080;46.904;19.688;2022-07-12T07:16:39;100559.00;;;27.45;27.53
60214;BME280;46080;46.904;19.688;2022-07-12T07:19:04;100559.56;;;27.72;27.19
60214;BME280;46080;46.904;19.688;2022-07-12T07:21:31;100568.03;;;27.35;27.38
60214;BME280;46080;46.904;19.688;2022-07-12T07:23:57;100562.31;;;27.62;27.42
60214;BME280;46080;46.904;19.688;2022-07-12T07:26:23;100561.75;;;27.76;26.83
60214;BME280;46080;46.904;19.688;2022-07-12T07:28:49;100559.00;;;27.91;27.17
60214;BME280;46080;46.904;19.688;2022-07-12T07:31:34;100567.72;;;28.24;26.62
60214;BME280;46080;46.904;19.688;2022-07-12T07:34:01;100553.69;;;28.51;25.99
60214;BME280;46080;46.904;19.688;2022-07-12T07:36:27;100554.25;;;28.58;26.27
60214;BME280;46080;46.904;19.688;2022-07-12T07:38:52;100549.69;;;28.07;26.44
60214;BME280;46080;46.904;19.688;2022-07-12T07:41:18;100553.53;;;27.76;26.53
60214;BME280;46080;46.904;19.688;2022-07-12T07:43:44;100545.56;;;27.95;26.28
60214;BME280;46080;46.904;19.688;2022-07-12T07:46:10;100548.56;;;27.93;26.83
60214;BME280;46080;46.904;19.688;2022-07-12T07:48:35;100539.81;;;27.96;26.65
60214;BME280;46080;46.904;19.688;2022-07-12T07:51:01;100551.59;;;27.55;26.47
60214;BME280;46080;46.904;19.688;2022-07-12T07:53:27;100548.06;;;27.55;26.61
60214;BME280;46080;46.904;19.688;2022-07-12T07:55:53;100565.84;;;27.63;26.40
60214;BME280;46080;46.904;19.688;2022-07-12T07:58:19;100555.44;;;28.06;26.11
60214;BME280;46080;46.904;19.688;2022-07-12T08:00:47;100549.66;;;28.18;25.66
60214;BME280;46080;46.904;19.688;2022-07-12T08:03:13;100552.44;;;28.07;25.61
60214;BME280;46080;46.904;19.688;2022-07-12T08:05:38;100549.34;;;28.40;25.53
60214;BME280;46080;46.904;19.688;2022-07-12T08:08:04;100548.84;;;27.91;25.61
60214;BME280;46080;46.904;19.688;2022-07-12T08:10:30;100550.97;;;28.46;25.02
60214;BME280;46080;46.904;19.688;2022-07-12T08:12:55;100552.13;;;28.95;24.70
60214;BME280;46080;46.904;19.688;2022-07-12T08:15:22;100550.88;;;28.72;24.71
60214;BME280;46080;46.904;19.688;2022-07-12T08:17:47;100539.44;;;28.49;24.57
60214;BME280;46080;46.904;19.688;2022-07-12T08:20:13;100545.59;;;27.69;25.63
60214;BME280;46080;46.904;19.688;2022-07-12T08:22:45;100548.06;;;27.50;25.86
60214;BME280;46080;46.904;19.688;2022-07-12T08:25:15;100552.06;;;27.22;25.85
60214;BME280;46080;46.904;19.688;2022-07-12T08:27:41;100544.97;;;27.26;26.45
60214;BME280;46080;46.904;19.688;2022-07-12T08:30:07;100548.22;;;27.07;26.51
60214;BME280;46080;46.904;19.688;2022-07-12T08:32:33;100554.69;;;26.75;26.76
60214;BME280;46080;46.904;19.688;2022-07-12T08:34:59;100544.97;;;26.42;27.08
60214;BME280;46080;46.904;19.688;2022-07-12T08:37:24;100541.50;;;26.62;27.16
60214;BME280;46080;46.904;19.688;2022-07-12T08:39:51;100535.03;;;26.89;26.82
60214;BME280;46080;46.904;19.688;2022-07-12T08:42:17;100544.97;;;26.42;27.60
60214;BME280;46080;46.904;19.688;2022-07-12T08:44:44;100539.94;;;26.76;27.05
60214;BME280;46080;46.904;19.688;2022-07-12T08:47:18;100540.88;;;27.13;26.54
60214;BME280;46080;46.904;19.688;2022-07-12T08:52:47;100534.34;;;27.86;25.90
60214;BME280;46080;46.904;19.688;2022-07-12T08:55:29;100528.53;;;28.23;25.41
60214;BME280;46080;46.904;19.688;2022-07-12T08:57:57;100532.91;;;28.30;25.38
60214;BME280;46080;46.904;19.688;2022-07-12T09:00:25;100528.31;;;27.94;25.70
60214;BME280;46080;46.904;19.688;2022-07-12T09:03:09;100530.44;;;28.28;25.38
60214;BME280;46080;46.904;19.688;2022-07-12T09:05:37;100528.53;;;28.23;24.91
60214;BME280;46080;46.904;19.688;2022-07-12T09:08:08;100541.34;;;28.54;24.59
60214;BME280;46080;46.904;19.688;2022-07-12T09:10:36;100521.59;;;28.62;24.31
60214;BME280;46080;46.904;19.688;2022-07-12T09:13:17;100522.13;;;28.54;24.65
60214;BME280;46080;46.904;19.688;2022-07-12T09:15:43;100528.31;;;28.04;25.39
60214;BME280;46080;46.904;19.688;2022-07-12T09:18:09;100523.69;;;27.53;26.10
60214;BME280;46080;46.904;19.688;2022-07-12T09:20:40;100535.84;;;26.89;26.89
60214;BME280;46080;46.904;19.688;2022-07-12T09:23:08;100538.06;;;26.87;26.84
60214;BME280;46080;46.904;19.688;2022-07-12T09:25:34;100542.50;;;27.14;26.32
60214;BME280;46080;46.904;19.688;2022-07-12T09:28:06;100537.56;;;27.06;26.49
60214;BME280;46080;46.904;19.688;2022-07-12T09:30:34;100531.34;;;27.51;25.62
60214;BME280;46080;46.904;19.688;2022-07-12T09:33:03;100529.69;;;27.71;25.63
60214;BME280;46080;46.904;19.688;2022-07-12T09:38:33;100530.69;;;26.93;26.71
60214;BME280;46080;46.904;19.688;2022-07-12T09:41:01;100528.41;;;26.69;27.12
60214;BME280;46080;46.904;19.688;2022-07-12T09:43:27;100525.19;;;26.88;26.97
60214;BME280;46080;46.904;19.688;2022-07-12T09:45:53;100524.16;;;27.19;26.14
60214;BME280;46080;46.904;19.688;2022-07-12T09:48:22;100514.91;;;27.62;25.58
60214;BME280;46080;46.904;19.688;2022-07-12T09:50:51;100521.75;;;27.64;25.82
60214;BME280;46080;46.904;19.688;2022-07-12T09:53:30;100515.47;;;27.43;26.13
60214;BME280;46080;46.904;19.688;2022-07-12T09:55:58;100525.25;;;27.08;26.45
60214;BME280;46080;46.904;19.688;2022-07-12T09:59:14;100512.84;;;26.80;26.85
60214;BME280;46080;46.904;19.688;2022-07-12T10:01:22;100509.53;;;26.68;26.53
60214;BME280;46080;46.904;19.688;2022-07-12T10:03:50;100523.25;;;26.83;26.10
60214;BME280;46080;46.904;19.688;2022-07-12T10:06:24;100512.66;;;27.12;25.80
60214;BME280;46080;46.904;19.688;2022-07-12T10:08:51;100509.94;;;27.28;25.66
60214;BME280;46080;46.904;19.688;2022-07-12T10:11:18;100497.91;;;27.70;25.32
60214;BME280;46080;46.904;19.688;2022-07-12T10:13:45;100491.59;;;28.00;25.29
60214;BME280;46080;46.904;19.688;2022-07-12T10:16:13;100497.06;;;28.05;25.45
60214;BME280;46080;46.904;19.688;2022-07-12T10:18:40;100492.13;;;28.07;24.81
60214;BME280;46080;46.904;19.688;2022-07-12T10:21:21;100495.22;;;27.54;24.72
60214;BME280;46080;46.904;19.688;2022-07-12T10:23:50;100492.75;;;27.38;25.62
60214;BME280;46080;46.904;19.688;2022-07-12T10:31:24;100502.22;;;26.94;26.08
60214;BME280;46080;46.904;19.688;2022-07-12T10:34:13;100499.25;;;27.06;25.95
60214;BME280;46080;46.904;19.688;2022-07-12T10:37:07;100496.53;;;27.26;25.44
60214;BME280;46080;46.904;19.688;2022-07-12T10:39:32;100488.66;;;27.45;25.29
60214;BME280;46080;46.904;19.688;2022-07-12T10:44:38;100484.75;;;27.10;25.64
60214;BME280;46080;46.904;19.688;2022-07-12T10:47:06;100501.66;;;26.81;25.56
60214;BME280;46080;46.904;19.688;2022-07-12T10:49:34;100501.31;;;26.68;25.66
60214;BME280;46080;46.904;19.688;2022-07-12T10:57:53;100489.56;;;26.67;25.14
60214;BME280;46080;46.904;19.688;2022-07-12T11:00:19;100490.13;;;26.69;25.13
60214;BME280;46080;46.904;19.688;2022-07-12T11:02:46;100492.72;;;27.22;24.41
60214;BME280;46080;46.904;19.688;2022-07-12T11:05:12;100492.19;;;27.51;23.97
60214;BME280;46080;46.904;19.688;2022-07-12T11:07:38;100480.06;;;27.93;23.80
60214;BME280;46080;46.904;19.688;2022-07-12T11:10:04;100488.28;;;27.93;23.31
60214;BME280;46080;46.904;19.688;2022-07-12T11:12:32;100480.63;;;28.11;23.91
60214;BME280;46080;46.904;19.688;2022-07-12T11:15:02;100477.56;;;28.17;23.57
60214;BME280;46080;46.904;19.688;2022-07-12T11:17:31;100481.69;;;28.20;23.44
60214;BME280;46080;46.904;19.688;2022-07-12T11:20:08;100476.25;;;27.94;23.06
60214;BME280;46080;46.904;19.688;2022-07-12T11:22:36;100477.59;;;28.07;22.70
60214;BME280;46080;46.904;19.688;2022-07-12T11:25:03;100480.66;;;27.95;23.17
60214;BME280;46080;46.904;19.688;2022-07-12T11:27:29;100469.69;;;27.75;23.46
60214;BME280;46080;46.904;19.688;2022-07-12T11:30:02;100484.22;;;27.29;23.90
60214;BME280;46080;46.904;19.688;2022-07-12T11:32:39;100486.94;;;27.18;24.48
60214;BME280;46080;46.904;19.688;2022-07-12T11:37:55;100483.03;;;26.78;24.26
60214;BME280;46080;46.904;19.688;2022-07-12T11:40:29;100487.31;;;26.54;24.71
60214;BME280;46080;46.904;19.688;2022-07-12T11:42:57;100480.16;;;26.37;25.33
60214;BME280;46080;46.904;19.688;2022-07-12T11:45:31;100484.06;;;26.04;25.89
60214;BME280;46080;46.904;19.688;2022-07-12T11:48:02;100485.75;;;26.10;26.29
60214;BME280;46080;46.904;19.688;2022-07-12T11:50:31;100487.13;;;26.07;26.62
60214;BME280;46080;46.904;19.688;2022-07-12T11:53:00;100474.13;;;25.87;26.19
60214;BME280;46080;46.904;19.688;2022-07-12T11:55:26;100483.31;;;25.76;26.53
60214;BME280;46080;46.904;19.688;2022-07-12T11:58:03;100477.22;;;25.64;27.15
60214;BME280;46080;46.904;19.688;2022-07-12T12:00:29;100479.16;;;25.68;27.10
60214;BME280;46080;46.904;19.688;2022-07-12T12:02:55;100470.66;;;25.59;26.66
60214;BME280;46080;46.904;19.688;2022-07-12T12:05:21;100471.97;;;25.52;26.95
60214;BME280;46080;46.904;19.688;2022-07-12T12:07:47;100463.63;;;25.69;27.01
60214;BME280;46080;46.904;19.688;2022-07-12T12:10:15;100458.94;;;26.07;25.86
60214;BME280;46080;46.904;19.688;2022-07-12T12:12:43;100464.50;;;26.22;25.25
60214;BME280;46080;46.904;19.688;2022-07-12T12:15:24;100461.03;;;26.47;24.66
60214;BME280;46080;46.904;19.688;2022-07-12T12:20:18;100443.78;;;26.37;25.08
60214;BME280;46080;46.904;19.688;2022-07-12T12:22:46;100445.22;;;26.50;25.01
60214;BME280;46080;46.904;19.688;2022-07-12T12:25:14;100434.06;;;26.77;23.91
60214;BME280;46080;46.904;19.688;2022-07-12T12:27:44;100440.13;;;26.84;23.45
60214;BME280;46080;46.904;19.688;2022-07-12T12:30:11;100446.13;;;26.76;24.36
60214;BME280;46080;46.904;19.688;2022-07-12T12:35:19;100451.03;;;26.05;26.05
60214;BME280;46080;46.904;19.688;2022-07-12T12:38:15;100457.56;;;25.62;26.72
60214;BME280;46080;46.904;19.688;2022-07-12T12:40:49;100466.25;;;25.26;27.02
60214;BME280;46080;46.904;19.688;2022-07-12T12:43:19;100486.81;;;24.79;29.07
60214;BME280;46080;46.904;19.688;2022-07-12T12:45:53;100497.19;;;24.38;30.63
60214;BME280;46080;46.904;19.688;2022-07-12T12:50:47;100510.25;;;23.46;35.07
60214;BME280;46080;46.904;19.688;2022-07-12T12:53:18;100505.75;;;23.23;35.79
60214;BME280;46080;46.904;19.688;2022-07-12T12:55:47;100512.81;;;23.07;35.74
60214;BME280;46080;46.904;19.688;2022-07-12T12:58:14;100505.56;;;23.13;35.33
60214;BME280;46080;46.904;19.688;2022-07-12T13:00:42;100500.91;;;22.96;35.05
60214;BME280;46080;46.904;19.688;2022-07-12T13:03:10;100502.44;;;22.92;34.22
60214;BME280;46080;46.904;19.688;2022-07-12T13:05:36;100494.69;;;22.84;33.58
60214;BME280;46080;46.904;19.688;2022-07-12T13:08:04;100496.69;;;22.88;33.37
60214;BME280;46080;46.904;19.688;2022-07-12T13:10:30;100496.78;;;22.94;32.75
60214;BME280;46080;46.904;19.688;2022-07-12T13:12:56;100490.34;;;23.00;31.84